Shaw A F B, South Carolina
Current Conditions -  °F | °C
As of 4:58 PM on Saturday 25 Oct 2014 (Local Time) from KSSC Reporting Station
Clear Clear  
Wind Chill: 74°   Ceiling: Unl
Heat Index: 74°   Visibility: 10mi
Dew Point: 42°   Wind: 6mph
Humidity: 32%   Direction: 320°NW
Pressure: 29.93"   Gusts: NA
Location:  33.9803°N, 80.4811°W
Report Text: KSSC 252058Z AUTO 32005KT 10SM CLR 23/06 A2993 RMK AO2 SLP136 T02340058 57013 $
Loading
Personal Weather Stations






























Interactive Weather Map
Tropical Storm Tracking
New forecast layout! Learn more

10-Day Weather Forecast

Advertisements
Track Severe Weather on mobile